createdAt,value
2023-04-27T00:01:56.196Z,100486.53
2023-04-27T00:05:02.611Z,100499.94
2023-04-27T00:08:06.382Z,100474.87
2023-04-27T00:11:09.012Z,100506.25
2023-04-27T00:14:11.771Z,100465.50
2023-04-27T00:17:14.490Z,100503.34
2023-04-27T00:20:18.239Z,100487.34
2023-04-27T00:23:21.233Z,100475.03
2023-04-27T00:26:23.470Z,100494.28
2023-04-27T00:29:26.621Z,100475.34
2023-04-27T00:32:30.155Z,100504.63
2023-04-27T00:35:33.331Z,100498.66
2023-04-27T00:38:35.689Z,100501.87
2023-04-27T00:41:40.690Z,100473.91
2023-04-27T00:44:44.303Z,100500.59
2023-04-27T00:47:49.003Z,100473.91
2023-04-27T00:50:51.440Z,100499.28
2023-04-27T00:53:55.995Z,100498.97
2023-04-27T00:56:59.600Z,100495.25
2023-04-27T01:00:04.620Z,100469.03
2023-04-27T01:03:07.681Z,100469.81
2023-04-27T01:06:10.597Z,100495.38
2023-04-27T01:09:16.554Z,100500.72
2023-04-27T01:12:19.096Z,100493.12
2023-04-27T01:15:24.475Z,100491.34
2023-04-27T01:18:27.118Z,100466.91
2023-04-27T01:21:30.587Z,100479.50
2023-04-27T01:24:34.140Z,100474.31
2023-04-27T01:27:38.597Z,100507.78
2023-04-27T01:30:43.396Z,100479.50
2023-04-27T01:33:45.916Z,100474.50
2023-04-27T01:36:50.930Z,100509.41
2023-04-27T01:39:53.235Z,100515.37
2023-04-27T01:42:56.224Z,100491.41
2023-04-27T01:46:09.800Z,100510.34
2023-04-27T01:49:12.907Z,100508.37
2023-04-27T01:52:15.773Z,100507.38
2023-04-27T01:55:21.131Z,100517.09
2023-04-27T01:58:23.567Z,100487.94
2023-04-27T02:01:31.539Z,100511.09
2023-04-27T02:04:39.439Z,100522.41
2023-04-27T02:07:41.911Z,100497.63
2023-04-27T02:10:44.618Z,100498.94
2023-04-27T02:13:49.446Z,100499.84
2023-04-27T02:16:52.162Z,100508.41
2023-04-27T02:19:55.223Z,100515.69
2023-04-27T02:22:57.814Z,100530.09
2023-04-27T02:26:01.806Z,100504.84
2023-04-27T02:29:09.282Z,100533.66
2023-04-27T02:32:12.248Z,100527.94
2023-04-27T02:35:14.662Z,100505.91
2023-04-27T02:38:17.312Z,100523.72
2023-04-27T02:41:20.111Z,100521.72
2023-04-27T02:44:22.478Z,100544.66
2023-04-27T02:47:27.025Z,100542.41
2023-04-27T02:50:30.592Z,100545.28
2023-04-27T02:53:33.217Z,100548.53
2023-04-27T02:56:35.577Z,100551.06
2023-04-27T02:59:40.430Z,100556.53
2023-04-27T03:02:45.167Z,100553.34
2023-04-27T03:05:47.893Z,100567.25
2023-04-27T03:08:50.701Z,100559.34
2023-04-27T03:11:53.436Z,100568.00
2023-04-27T03:14:56.446Z,100542.56
2023-04-27T03:18:00.001Z,100550.03
2023-04-27T03:21:13.357Z,100570.19
2023-04-27T03:24:16.632Z,100543.19
2023-04-27T03:27:18.951Z,100560.16
2023-04-27T03:30:22.056Z,100546.19
2023-04-27T03:33:28.184Z,100576.00
2023-04-27T03:36:33.444Z,100552.69
2023-04-27T03:39:38.343Z,100569.91
2023-04-27T03:42:41.154Z,100583.81
2023-04-27T03:45:46.407Z,100557.72
2023-04-27T03:48:49.192Z,100585.34
2023-04-27T03:51:52.075Z,100567.00
2023-04-27T03:54:54.657Z,100562.22
2023-04-27T03:57:57.066Z,100566.56
2023-04-27T04:00:59.655Z,100574.19
2023-04-27T04:04:03.220Z,100576.84
2023-04-27T04:07:10.439Z,100589.63
2023-04-27T04:10:16.527Z,100577.25
2023-04-27T04:13:19.604Z,100607.59
2023-04-27T04:16:22.390Z,100606.72
2023-04-27T04:19:26.853Z,100590.19
2023-04-27T04:22:29.454Z,100605.12
2023-04-27T04:25:32.831Z,100601.88
2023-04-27T04:28:37.166Z,100596.41
2023-04-27T04:31:40.086Z,100633.13
2023-04-27T04:34:51.178Z,100607.16
2023-04-27T04:37:55.159Z,100634.94
2023-04-27T04:40:57.792Z,100631.69
2023-04-27T04:44:00.642Z,100619.91
2023-04-27T04:47:03.694Z,100616.06
2023-04-27T04:50:06.813Z,100629.25
2023-04-27T04:53:10.691Z,100615.81
2023-04-27T04:56:14.454Z,100641.03
2023-04-27T04:59:17.606Z,100634.69
2023-04-27T05:02:19.877Z,100639.84
2023-04-27T05:05:22.535Z,100611.03
2023-04-27T05:08:25.047Z,100648.06
2023-04-27T05:11:27.846Z,100647.16
2023-04-27T05:14:31.154Z,100627.56
2023-04-27T05:17:42.386Z,100659.00
2023-04-27T05:20:47.043Z,100666.31
2023-04-27T05:23:49.678Z,100643.16
2023-04-27T05:26:52.223Z,100640.13
2023-04-27T05:29:54.818Z,100668.34
2023-04-27T05:32:57.212Z,100677.25
2023-04-27T05:36:00.110Z,100681.00
2023-04-27T05:39:03.515Z,100671.16
2023-04-27T05:42:06.311Z,100679.06
2023-04-27T05:45:09.105Z,100683.19
2023-04-27T05:48:12.099Z,100683.75
2023-04-27T05:51:14.541Z,100682.84
2023-04-27T05:54:17.294Z,100689.34
2023-04-27T05:57:19.673Z,100689.34
2023-04-27T06:00:22.700Z,100686.59
2023-04-27T06:03:25.930Z,100690.47
2023-04-27T06:06:32.466Z,100693.75
2023-04-27T06:09:35.473Z,100695.94
2023-04-27T06:12:38.426Z,100680.16
2023-04-27T06:15:41.078Z,100696.59
2023-04-27T06:18:43.413Z,100676.22
2023-04-27T06:21:46.431Z,100695.25
2023-04-27T06:24:48.699Z,100684.13
2023-04-27T06:27:51.441Z,100704.84
2023-04-27T06:30:54.030Z,100684.78
2023-04-27T06:33:57.379Z,100695.66
2023-04-27T06:36:59.680Z,100717.84
2023-04-27T06:40:02.325Z,100708.94
2023-04-27T06:43:04.904Z,100713.81
2023-04-27T06:46:07.586Z,100696.94
2023-04-27T06:49:09.939Z,100704.81
2023-04-27T06:52:12.521Z,100715.81
2023-04-27T06:55:15.185Z,100715.47
2023-04-27T06:58:17.874Z,100714.97
2023-04-27T07:01:20.214Z,100702.34
2023-04-27T07:04:23.047Z,100719.47
2023-04-27T07:07:25.576Z,100723.03
2023-04-27T07:10:28.357Z,100723.91
2023-04-27T07:13:30.691Z,100730.38
2023-04-27T07:16:33.431Z,100730.91
2023-04-27T07:19:37.169Z,100734.06
2023-04-27T07:22:40.494Z,100728.97
2023-04-27T07:25:43.574Z,100731.66
2023-04-27T07:28:47.333Z,100704.03
2023-04-27T07:31:51.918Z,100711.06
2023-04-27T07:34:58.120Z,100714.69
2023-04-27T07:38:02.691Z,100707.28
2023-04-27T07:41:05.852Z,100738.50
2023-04-27T07:44:08.160Z,100732.81
2023-04-27T07:47:10.953Z,100735.13
2023-04-27T07:50:17.038Z,100710.09
2023-04-27T07:53:19.873Z,100726.31
2023-04-27T07:56:22.266Z,100707.47
2023-04-27T07:59:24.966Z,100714.53
2023-04-27T08:02:31.715Z,100731.03
2023-04-27T08:05:35.159Z,100732.09
2023-04-27T08:08:37.735Z,100732.22
2023-04-27T08:11:40.831Z,100720.22
2023-04-27T08:14:43.107Z,100737.59
2023-04-27T08:17:47.211Z,100723.50
2023-04-27T08:20:49.430Z,100713.91
2023-04-27T08:23:51.960Z,100734.34
2023-04-27T08:26:54.248Z,100710.97
2023-04-27T08:29:56.837Z,100718.41
2023-04-27T08:32:59.210Z,100719.66
2023-04-27T08:36:01.872Z,100712.47
2023-04-27T08:39:07.755Z,100734.69
2023-04-27T08:42:11.747Z,100730.69
2023-04-27T08:45:13.950Z,100722.44
2023-04-27T08:48:16.708Z,100734.59
2023-04-27T08:51:20.259Z,100719.66
2023-04-27T08:54:22.845Z,100729.91
2023-04-27T08:57:25.102Z,100713.25
2023-04-27T09:00:37.700Z,100730.31
2023-04-27T09:03:40.093Z,100714.91
2023-04-27T09:06:43.191Z,100709.53
2023-04-27T09:09:45.982Z,100724.16
2023-04-27T09:13:01.418Z,100695.03
2023-04-27T09:16:04.003Z,100699.22
2023-04-27T09:19:07.153Z,100710.31
2023-04-27T09:22:11.341Z,100712.97
2023-04-27T09:25:23.738Z,100703.25
2023-04-27T09:28:30.987Z,100700.59
2023-04-27T09:31:36.680Z,100711.87
2023-04-27T09:34:41.110Z,100708.06
2023-04-27T09:37:44.859Z,100708.25
2023-04-27T09:40:48.243Z,100687.03
2023-04-27T09:43:52.869Z,100703.81
2023-04-27T09:46:58.836Z,100698.66
2023-04-27T09:50:03.167Z,100696.94
2023-04-27T09:53:09.881Z,100684.47
2023-04-27T09:56:30.985Z,100670.47
2023-04-27T10:00:11.084Z,100691.31
2023-04-27T10:03:39.338Z,100691.37
2023-04-27T10:07:13.022Z,100664.31
2023-04-27T10:10:20.624Z,100676.78
2023-04-27T10:13:25.217Z,100675.31
2023-04-27T10:16:27.899Z,100671.34
2023-04-27T10:19:30.360Z,100671.25
2023-04-27T10:22:44.131Z,100669.81
2023-04-27T10:25:47.598Z,100650.69
2023-04-27T10:29:18.188Z,100670.81
2023-04-27T10:32:26.096Z,100675.78
2023-04-27T10:35:53.299Z,100676.53
2023-04-27T10:38:58.667Z,100655.78
2023-04-27T10:42:01.434Z,100665.19
2023-04-27T10:45:04.220Z,100661.16
2023-04-27T10:48:13.113Z,100667.81
2023-04-27T10:51:17.665Z,100645.47
2023-04-27T10:54:20.739Z,100665.59
2023-04-27T10:57:23.204Z,100645.47
2023-04-27T11:00:30.861Z,100642.38
2023-04-27T11:03:33.261Z,100642.38
2023-04-27T11:06:48.498Z,100658.38
2023-04-27T11:09:51.273Z,100646.66
2023-04-27T11:12:57.100Z,100667.09
2023-04-27T11:16:00.351Z,100653.19
2023-04-27T11:19:09.164Z,100637.09
2023-04-27T11:22:11.672Z,100631.84
2023-04-27T11:25:14.344Z,100643.09
2023-04-27T11:28:20.532Z,100627.09
2023-04-27T11:31:23.247Z,100653.78
2023-04-27T11:34:26.779Z,100656.16
2023-04-27T11:37:29.812Z,100632.56
2023-04-27T11:40:32.400Z,100623.03
2023-04-27T11:43:37.161Z,100626.78
2023-04-27T11:46:41.438Z,100640.69
2023-04-27T11:49:48.299Z,100657.63
2023-04-27T11:52:50.762Z,100651.59
2023-04-27T11:55:53.737Z,100648.62
2023-04-27T11:58:56.110Z,100653.41
2023-04-27T12:01:58.779Z,100623.81
2023-04-27T12:05:01.801Z,100651.53
2023-04-27T12:08:04.576Z,100642.91
2023-04-27T12:11:07.270Z,100619.19
2023-04-27T12:14:09.995Z,100636.53
2023-04-27T12:17:12.792Z,100637.25
2023-04-27T12:20:15.376Z,100610.06
2023-04-27T12:23:18.010Z,100640.03
2023-04-27T12:26:21.557Z,100615.38
2023-04-27T12:29:24.686Z,100647.59
2023-04-27T12:32:28.041Z,100633.75
2023-04-27T12:35:32.178Z,100638.09
2023-04-27T12:38:34.667Z,100635.91
2023-04-27T12:41:37.448Z,100609.78
2023-04-27T12:44:39.761Z,100634.72
2023-04-27T12:47:58.308Z,100614.94
2023-04-27T12:51:05.046Z,100636.00
2023-04-27T12:54:09.626Z,100619.34
2023-04-27T12:57:12.163Z,100629.25
2023-04-27T13:00:15.492Z,100607.91
2023-04-27T13:03:18.069Z,100638.50
2023-04-27T13:06:22.819Z,100627.59
2023-04-27T13:09:25.568Z,100635.47
2023-04-27T13:12:28.168Z,100625.47
2023-04-27T13:15:30.523Z,100613.03
2023-04-27T13:18:35.026Z,100630.66
2023-04-27T13:21:38.019Z,100628.94
2023-04-27T13:24:41.203Z,100609.56
2023-04-27T13:27:43.650Z,100629.03
2023-04-27T13:30:46.326Z,100612.59
2023-04-27T13:33:48.759Z,100633.16
2023-04-27T13:36:51.462Z,100641.31
2023-04-27T13:39:53.840Z,100610.59
2023-04-27T13:42:56.523Z,100616.94
2023-04-27T13:46:01.204Z,100623.19
2023-04-27T13:49:03.989Z,100604.62
2023-04-27T13:52:06.362Z,100597.63
2023-04-27T13:55:10.474Z,100601.94
2023-04-27T13:58:13.778Z,100599.66
2023-04-27T14:01:17.146Z,100597.84
2023-04-27T14:04:19.932Z,100597.28
2023-04-27T14:07:22.707Z,100616.56
2023-04-27T14:10:25.404Z,100611.62
2023-04-27T14:13:27.732Z,100594.28
2023-04-27T14:16:30.714Z,100609.28
2023-04-27T14:19:33.558Z,100608.19
2023-04-27T14:22:37.023Z,100606.34
2023-04-27T14:25:39.454Z,100608.00
2023-04-27T14:28:42.155Z,100638.47
2023-04-27T14:31:44.875Z,100636.09
2023-04-27T14:34:47.653Z,100639.22
2023-04-27T14:37:53.503Z,100629.41
2023-04-27T14:40:56.249Z,100634.72
2023-04-27T14:43:58.888Z,100639.78
2023-04-27T14:47:01.609Z,100613.66
2023-04-27T14:50:04.567Z,100616.31
2023-04-27T14:53:07.160Z,100630.28
2023-04-27T14:56:09.709Z,100616.19
2023-04-27T14:59:12.455Z,100613.22
2023-04-27T15:02:15.116Z,100613.09
2023-04-27T15:05:17.775Z,100635.34
2023-04-27T15:08:20.988Z,100645.66
2023-04-27T15:11:23.787Z,100614.97
2023-04-27T15:14:26.248Z,100636.19
2023-04-27T15:17:30.663Z,100638.09
2023-04-27T15:20:33.078Z,100629.84
2023-04-27T15:23:37.250Z,100604.53
2023-04-27T15:26:39.990Z,100610.37
2023-04-27T15:29:42.561Z,100631.25
2023-04-27T15:32:44.877Z,100615.03
2023-04-27T15:35:47.610Z,100630.91
2023-04-27T15:38:50.480Z,100633.44
2023-04-27T15:41:53.060Z,100612.59
2023-04-27T15:44:55.666Z,100641.25
2023-04-27T15:47:58.475Z,100617.38
2023-04-27T15:51:01.077Z,100614.59
2023-04-27T15:54:03.945Z,100638.38
2023-04-27T15:57:06.274Z,100621.47
2023-04-27T16:00:10.439Z,100616.09
2023-04-27T16:03:14.286Z,100639.91
2023-04-27T16:06:17.272Z,100630.59
2023-04-27T16:09:20.238Z,100639.06
2023-04-27T16:12:22.875Z,100630.75
2023-04-27T16:15:25.365Z,100631.72
2023-04-27T16:18:28.020Z,100643.03
2023-04-27T16:21:30.518Z,100619.84
2023-04-27T16:24:33.166Z,100627.59
2023-04-27T16:27:35.672Z,100645.03
2023-04-27T16:30:39.001Z,100649.22
2023-04-27T16:33:41.895Z,100622.03
2023-04-27T16:36:44.678Z,100647.53
2023-04-27T16:39:47.009Z,100631.09
2023-04-27T16:42:50.245Z,100622.81
2023-04-27T16:45:52.643Z,100655.78
2023-04-27T16:48:55.921Z,100654.84
2023-04-27T16:51:58.329Z,100619.72
2023-04-27T16:55:01.030Z,100649.81
2023-04-27T16:58:03.333Z,100655.13
2023-04-27T17:01:06.154Z,100639.19
2023-04-27T17:04:08.762Z,100635.03
2023-04-27T17:07:11.782Z,100637.59
2023-04-27T17:10:14.311Z,100666.88
2023-04-27T17:13:17.458Z,100659.97
2023-04-27T17:16:21.738Z,100667.13
2023-04-27T17:19:24.604Z,100656.63
2023-04-27T17:22:28.399Z,100669.19
2023-04-27T17:25:31.150Z,100678.63
2023-04-27T17:28:34.351Z,100666.66
2023-04-27T17:31:37.224Z,100648.78
2023-04-27T17:34:42.441Z,100678.41
2023-04-27T17:37:46.039Z,100679.56
2023-04-27T17:40:48.518Z,100674.94
2023-04-27T17:43:51.409Z,100684.63
2023-04-27T17:46:53.897Z,100670.81
2023-04-27T17:49:56.615Z,100661.81
2023-04-27T17:52:58.968Z,100694.66
2023-04-27T17:56:01.867Z,100699.38
2023-04-27T17:59:05.612Z,100692.94
2023-04-27T18:02:08.323Z,100699.34
2023-04-27T18:05:11.082Z,100695.13
2023-04-27T18:08:13.463Z,100678.59
2023-04-27T18:11:16.273Z,100679.28
2023-04-27T18:14:18.562Z,100688.59
2023-04-27T18:17:21.589Z,100686.16
2023-04-27T18:20:25.628Z,100696.78
2023-04-27T18:23:28.746Z,100718.44
2023-04-27T18:26:31.270Z,100722.25
2023-04-27T18:29:34.124Z,100689.59
2023-04-27T18:32:36.557Z,100694.19
2023-04-27T18:35:39.202Z,100700.38
2023-04-27T18:38:43.025Z,100722.91
2023-04-27T18:41:46.097Z,100708.88
2023-04-27T18:44:48.429Z,100737.72
2023-04-27T18:47:51.277Z,100736.81
2023-04-27T18:50:53.920Z,100720.38
2023-04-27T18:53:56.526Z,100728.19
2023-04-27T18:56:58.864Z,100728.41
2023-04-27T19:00:01.665Z,100737.38
2023-04-27T19:03:05.137Z,100738.00
2023-04-27T19:06:07.835Z,100765.41
2023-04-27T19:09:10.260Z,100762.94
2023-04-27T19:12:12.928Z,100763.63
2023-04-27T19:15:16.560Z,100752.63
2023-04-27T19:18:19.319Z,100736.31
2023-04-27T19:21:21.718Z,100768.47
2023-04-27T19:24:24.373Z,100747.69
2023-04-27T19:27:27.304Z,100777.47
2023-04-27T19:30:30.057Z,100747.69
2023-04-27T19:33:32.487Z,100748.47
2023-04-27T19:36:35.089Z,100778.69
2023-04-27T19:39:37.365Z,100759.25
2023-04-27T19:42:39.989Z,100763.28
2023-04-27T19:45:42.966Z,100776.69
2023-04-27T19:48:45.672Z,100779.47
2023-04-27T19:51:48.038Z,100746.91
2023-04-27T19:54:52.581Z,100748.72
2023-04-27T19:57:54.806Z,100773.66
2023-04-27T20:00:57.593Z,100773.19
2023-04-27T20:04:00.268Z,100756.72
2023-04-27T20:07:05.038Z,100753.00
2023-04-27T20:10:08.487Z,100768.38
2023-04-27T20:13:10.818Z,100760.00
2023-04-27T20:16:13.730Z,100766.81
2023-04-27T20:19:18.954Z,100731.38
2023-04-27T20:22:21.992Z,100774.81
2023-04-27T20:25:25.916Z,100780.31
2023-04-27T20:28:30.337Z,100782.63
2023-04-27T20:31:33.120Z,100775.47
2023-04-27T20:34:35.879Z,100784.75
2023-04-27T20:37:39.395Z,100781.56
2023-04-27T20:40:42.117Z,100779.44
2023-04-27T20:43:45.578Z,100791.12
2023-04-27T20:46:48.680Z,100786.75
2023-04-27T20:49:51.301Z,100787.09
2023-04-27T20:52:53.904Z,100785.81
2023-04-27T20:55:57.145Z,100782.53
2023-04-27T20:59:00.128Z,100792.63
2023-04-27T21:02:02.894Z,100765.75
2023-04-27T21:05:05.825Z,100794.28
2023-04-27T21:08:08.453Z,100796.22
2023-04-27T21:11:11.941Z,100782.28
2023-04-27T21:14:14.561Z,100772.75
2023-04-27T21:17:17.696Z,100792.19
2023-04-27T21:20:20.132Z,100773.38
2023-04-27T21:23:22.836Z,100779.53
2023-04-27T21:26:25.313Z,100808.91
2023-04-27T21:29:28.106Z,100783.44
2023-04-27T21:32:30.647Z,100806.31
2023-04-27T21:35:33.405Z,100782.47
2023-04-27T21:38:35.749Z,100794.13
2023-04-27T21:41:39.303Z,100810.19
2023-04-27T21:44:41.617Z,100788.31
2023-04-27T21:47:44.464Z,100795.94
2023-04-27T21:50:46.863Z,100822.84
2023-04-27T21:53:49.476Z,100829.19
2023-04-27T21:56:51.778Z,100819.59
2023-04-27T21:59:54.401Z,100823.66
2023-04-27T22:02:56.846Z,100813.59
2023-04-27T22:05:59.649Z,100837.28
2023-04-27T22:09:02.383Z,100835.81
2023-04-27T22:12:05.252Z,100817.50
2023-04-27T22:15:08.206Z,100835.00
2023-04-27T22:18:10.855Z,100832.25
2023-04-27T22:21:13.705Z,100831.94
2023-04-27T22:24:17.504Z,100815.22
2023-04-27T22:27:20.673Z,100814.25
2023-04-27T22:30:23.321Z,100850.06
2023-04-27T22:33:25.892Z,100812.78
2023-04-27T22:36:28.828Z,100810.03
2023-04-27T22:39:32.588Z,100841.16
2023-04-27T22:42:35.075Z,100853.78
2023-04-27T22:45:38.808Z,100850.06
2023-04-27T22:48:41.986Z,100829.94
2023-04-27T22:51:44.641Z,100851.81
2023-04-27T22:54:47.267Z,100851.69
2023-04-27T22:57:50.131Z,100836.87
2023-04-27T23:00:52.782Z,100847.25
2023-04-27T23:03:55.200Z,100829.09
2023-04-27T23:06:58.090Z,100845.47
2023-04-27T23:10:02.986Z,100834.75
2023-04-27T23:13:07.298Z,100862.78
2023-04-27T23:16:10.102Z,100839.09
2023-04-27T23:19:13.673Z,100864.09
2023-04-27T23:22:16.283Z,100814.78
2023-04-27T23:25:19.034Z,100837.13
2023-04-27T23:28:22.484Z,100856.00
2023-04-27T23:31:25.123Z,100830.00
2023-04-27T23:34:27.575Z,100838.78
2023-04-27T23:37:30.154Z,100850.75
2023-04-27T23:40:32.481Z,100828.66
2023-04-27T23:43:35.331Z,100854.09
2023-04-27T23:46:38.148Z,100828.28
2023-04-27T23:49:44.344Z,100825.88
2023-04-27T23:52:46.654Z,100839.00
2023-04-27T23:55:49.264Z,100826.66
2023-04-27T23:58:51.636Z,100822.75
